createdAt,value
2023-01-31T00:01:38.753Z,0.40
2023-01-31T00:04:08.460Z,0.40
2023-01-31T00:06:43.156Z,0.30
2023-01-31T00:09:11.849Z,0.30
2023-01-31T00:11:39.403Z,0.38
2023-01-31T00:14:07.581Z,0.40
2023-01-31T00:16:35.240Z,0.40
2023-01-31T00:19:02.740Z,0.65
2023-01-31T00:21:31.124Z,0.45
2023-01-31T00:24:00.165Z,0.43
2023-01-31T00:26:30.174Z,0.52
2023-01-31T00:28:58.756Z,0.60
2023-01-31T00:31:27.983Z,0.65
2023-01-31T00:33:56.052Z,0.22
2023-01-31T00:36:25.913Z,0.70
2023-01-31T00:38:55.501Z,0.30
2023-01-31T00:41:24.107Z,0.68
2023-01-31T00:43:51.400Z,0.50
2023-01-31T00:46:20.521Z,0.30
2023-01-31T00:48:48.162Z,0.50
2023-01-31T00:51:15.701Z,0.45
2023-01-31T00:53:42.596Z,0.63
2023-01-31T00:56:12.695Z,0.38
2023-01-31T00:58:40.419Z,1.00
2023-01-31T01:01:10.637Z,1.48
2023-01-31T01:03:38.270Z,2.28
2023-01-31T01:06:06.756Z,1.30
2023-01-31T01:08:34.724Z,0.80
2023-01-31T01:11:16.015Z,0.80
2023-01-31T01:13:43.764Z,1.27
2023-01-31T01:16:16.316Z,2.72
2023-01-31T01:18:46.507Z,2.85
2023-01-31T01:21:16.159Z,2.75
2023-01-31T01:23:43.972Z,3.15
2023-01-31T01:26:20.148Z,2.58
2023-01-31T01:28:48.164Z,3.05
2023-01-31T01:31:16.669Z,2.92
2023-01-31T01:33:44.718Z,3.15
2023-01-31T01:36:22.238Z,2.65
2023-01-31T01:38:49.668Z,3.05
2023-01-31T01:41:17.306Z,2.85
2023-01-31T01:43:58.640Z,2.60
2023-01-31T01:46:55.130Z,2.53
2023-01-31T01:49:33.239Z,2.33
2023-01-31T01:52:05.414Z,1.70
2023-01-31T01:54:41.922Z,1.58
2023-01-31T01:57:11.304Z,1.77
2023-01-31T01:59:44.563Z,1.55
2023-01-31T02:02:12.080Z,1.77
2023-01-31T02:04:42.255Z,1.75
2023-01-31T02:07:09.770Z,2.08
2023-01-31T02:09:48.922Z,2.83
2023-01-31T02:12:16.315Z,3.53
2023-01-31T02:14:44.618Z,3.08
2023-01-31T02:17:17.301Z,2.83
2023-01-31T02:20:01.313Z,3.35
2023-01-31T02:22:38.326Z,2.42
2023-01-31T02:25:43.255Z,2.10
2023-01-31T02:28:31.506Z,1.58
2023-01-31T02:31:38.297Z,1.83
2023-01-31T02:34:42.056Z,2.10
2023-01-31T02:37:29.841Z,1.48
2023-01-31T02:40:09.418Z,1.00
2023-01-31T02:42:58.805Z,0.95
2023-01-31T02:45:38.235Z,0.93
2023-01-31T02:48:46.090Z,0.63
2023-01-31T02:51:20.481Z,0.88
2023-01-31T02:54:09.173Z,0.75
2023-01-31T02:56:38.542Z,0.57
2023-01-31T02:59:15.999Z,0.60
2023-01-31T03:01:46.919Z,0.60
2023-01-31T03:06:54.931Z,0.70
2023-01-31T03:09:30.253Z,0.43
2023-01-31T03:12:02.860Z,0.70
2023-01-31T03:14:41.085Z,0.52
2023-01-31T03:17:33.846Z,0.55
2023-01-31T03:20:06.750Z,0.40
2023-01-31T03:22:40.468Z,0.30
2023-01-31T03:25:12.106Z,0.40
2023-01-31T03:27:40.500Z,0.85
2023-01-31T03:30:18.633Z,2.15
2023-01-31T03:33:19.847Z,2.75
2023-01-31T03:35:59.385Z,17.73
2023-01-31T03:38:32.839Z,1.02
2023-01-31T03:41:12.901Z,1.70
2023-01-31T03:44:03.338Z,0.90
2023-01-31T03:46:51.779Z,2.80
2023-01-31T03:49:20.569Z,0.60
2023-01-31T03:51:53.483Z,3.50
2023-01-31T03:54:29.286Z,1.88
2023-01-31T03:57:02.173Z,2.80
2023-01-31T03:59:34.821Z,3.25
2023-01-31T04:02:03.930Z,3.80
2023-01-31T04:04:51.761Z,3.55
2023-01-31T04:07:18.769Z,3.20
2023-01-31T04:09:46.145Z,2.38
2023-01-31T04:12:15.173Z,2.25
2023-01-31T04:14:42.921Z,2.40
2023-01-31T04:17:09.879Z,6.50
2023-01-31T04:19:36.832Z,4.65
2023-01-31T04:22:03.857Z,4.88
2023-01-31T04:24:30.793Z,5.57
2023-01-31T04:26:57.834Z,7.95
2023-01-31T04:29:24.773Z,7.80
2023-01-31T04:31:51.832Z,12.15
2023-01-31T04:34:18.791Z,12.20
2023-01-31T04:36:45.759Z,26.20
2023-01-31T04:39:13.808Z,14.98
2023-01-31T04:41:40.794Z,6.70
2023-01-31T04:44:08.080Z,9.38
2023-01-31T04:46:35.093Z,11.68
2023-01-31T04:49:02.218Z,9.15
2023-01-31T04:51:29.130Z,6.47
2023-01-31T04:53:56.180Z,7.65
2023-01-31T04:56:23.154Z,6.40
2023-01-31T04:58:50.097Z,6.93
2023-01-31T05:01:17.267Z,6.93
2023-01-31T05:03:44.465Z,8.60
2023-01-31T05:06:11.456Z,9.30
2023-01-31T05:08:38.373Z,6.28
2023-01-31T05:11:07.522Z,5.50
2023-01-31T05:13:38.396Z,6.57
2023-01-31T05:18:35.520Z,6.25
2023-01-31T05:21:03.348Z,4.38
2023-01-31T05:23:31.472Z,4.38
2023-01-31T05:25:58.453Z,2.03
2023-01-31T05:28:26.446Z,1.67
2023-01-31T05:30:54.165Z,1.08
2023-01-31T05:33:21.476Z,1.10
2023-01-31T05:35:57.744Z,1.25
2023-01-31T05:38:24.700Z,0.70
2023-01-31T05:40:51.921Z,0.80
2023-01-31T05:43:19.191Z,0.88
2023-01-31T05:45:49.448Z,1.10
2023-01-31T05:48:16.455Z,1.17
2023-01-31T05:50:43.439Z,0.90
2023-01-31T05:53:11.224Z,1.40
2023-01-31T05:55:38.326Z,1.25
2023-01-31T05:58:05.415Z,1.27
2023-01-31T06:00:32.390Z,1.10
2023-01-31T06:03:00.069Z,1.08
2023-01-31T06:05:27.864Z,1.40
2023-01-31T06:07:55.347Z,1.00
2023-01-31T06:10:22.879Z,1.92
2023-01-31T06:12:49.824Z,1.35
2023-01-31T06:15:17.029Z,1.00
2023-01-31T06:17:44.013Z,1.27
2023-01-31T06:20:11.729Z,0.90
2023-01-31T06:22:38.681Z,1.60
2023-01-31T06:25:06.550Z,3.60
2023-01-31T06:27:34.461Z,0.82
2023-01-31T06:30:01.859Z,1.55
2023-01-31T06:32:28.853Z,1.20
2023-01-31T06:34:56.238Z,1.15
2023-01-31T06:37:23.227Z,1.00
2023-01-31T06:39:50.186Z,1.23
2023-01-31T06:42:17.121Z,1.15
2023-01-31T06:44:44.100Z,0.93
2023-01-31T06:47:13.018Z,1.23
2023-01-31T06:49:40.111Z,1.15
2023-01-31T06:52:07.123Z,1.25
2023-01-31T06:54:34.035Z,1.20
2023-01-31T06:57:01.062Z,1.00
2023-01-31T06:59:28.087Z,1.08
2023-01-31T07:01:55.140Z,1.65
2023-01-31T07:04:22.300Z,1.65
2023-01-31T07:06:49.345Z,1.73
2023-01-31T07:09:16.258Z,2.67
2023-01-31T07:11:43.223Z,2.58
2023-01-31T07:14:10.231Z,3.33
2023-01-31T07:16:38.816Z,3.22
2023-01-31T07:19:05.826Z,2.85
2023-01-31T07:21:33.511Z,2.40
2023-01-31T07:24:00.444Z,1.40
2023-01-31T07:26:27.627Z,1.10
2023-01-31T07:28:54.707Z,1.50
2023-01-31T07:31:21.896Z,1.08
2023-01-31T07:33:48.829Z,1.88
2023-01-31T07:36:16.773Z,1.90
2023-01-31T07:38:43.764Z,2.83
2023-01-31T07:41:11.806Z,2.83
2023-01-31T07:43:39.078Z,2.35
2023-01-31T07:46:11.068Z,2.00
2023-01-31T07:48:38.831Z,1.88
2023-01-31T07:51:06.285Z,1.58
2023-01-31T07:53:36.711Z,1.88
2023-01-31T07:56:12.418Z,2.28
2023-01-31T07:58:41.524Z,0.98
2023-01-31T08:01:34.068Z,1.15
2023-01-31T08:04:18.391Z,1.10
2023-01-31T08:06:48.405Z,1.10
2023-01-31T08:09:15.534Z,1.30
2023-01-31T08:11:42.805Z,1.52
2023-01-31T08:14:10.112Z,1.90
2023-01-31T08:16:37.449Z,1.77
2023-01-31T08:19:04.803Z,1.60
2023-01-31T08:21:31.809Z,1.15
2023-01-31T08:23:58.775Z,1.40
2023-01-31T08:26:25.845Z,1.20
2023-01-31T08:28:54.204Z,1.23
2023-01-31T08:31:24.408Z,1.00
2023-01-31T08:33:53.348Z,1.73
2023-01-31T08:36:22.879Z,1.42
2023-01-31T08:38:50.918Z,1.58
2023-01-31T08:41:19.628Z,1.30
2023-01-31T08:43:57.986Z,1.40
2023-01-31T08:46:31.128Z,1.50
2023-01-31T08:48:59.028Z,0.98
2023-01-31T08:51:26.264Z,1.27
2023-01-31T08:53:53.766Z,1.60
2023-01-31T08:56:21.671Z,1.73
2023-01-31T08:58:48.975Z,1.45
2023-01-31T09:01:18.268Z,1.25
2023-01-31T09:03:46.566Z,0.90
2023-01-31T09:06:19.807Z,1.45
2023-01-31T09:08:46.834Z,1.30
2023-01-31T09:11:17.581Z,1.33
2023-01-31T09:13:45.731Z,1.48
2023-01-31T09:16:14.422Z,1.40
2023-01-31T09:18:42.003Z,1.38
2023-01-31T09:21:14.969Z,2.17
2023-01-31T09:23:42.836Z,0.90
2023-01-31T09:26:12.012Z,1.02
2023-01-31T09:28:42.354Z,1.80
2023-01-31T09:31:14.525Z,0.73
2023-01-31T09:33:42.013Z,1.13
2023-01-31T09:36:14.827Z,1.02
2023-01-31T09:38:42.185Z,0.93
2023-01-31T09:41:30.074Z,0.95
2023-01-31T09:44:19.462Z,1.23
2023-01-31T09:46:54.591Z,1.83
2023-01-31T09:49:30.767Z,1.00
2023-01-31T09:52:02.748Z,1.05
2023-01-31T09:54:36.905Z,1.45
2023-01-31T09:57:12.673Z,1.25
2023-01-31T09:59:48.270Z,1.02
2023-01-31T10:02:37.103Z,1.10
2023-01-31T10:05:33.523Z,0.90
2023-01-31T10:08:14.932Z,0.82
2023-01-31T10:10:54.288Z,0.60
2023-01-31T10:13:35.066Z,1.00
2023-01-31T10:16:17.743Z,0.73
2023-01-31T10:18:49.794Z,0.85
2023-01-31T10:21:23.299Z,0.85
2023-01-31T10:23:56.300Z,0.50
2023-01-31T10:26:29.423Z,0.80
2023-01-31T10:29:35.246Z,0.98
2023-01-31T10:32:12.642Z,3.65
2023-01-31T10:34:46.256Z,1.17
2023-01-31T10:37:20.229Z,0.90
2023-01-31T10:40:22.283Z,0.88
2023-01-31T10:42:57.694Z,1.80
2023-01-31T10:45:31.734Z,1.00
2023-01-31T10:48:22.118Z,0.80
2023-01-31T10:51:00.392Z,1.13
2023-01-31T10:53:59.547Z,1.95
2023-01-31T10:56:37.782Z,1.65
2023-01-31T10:59:12.240Z,1.25
2023-01-31T11:01:42.331Z,1.00
2023-01-31T11:04:38.966Z,1.63
2023-01-31T11:07:06.508Z,1.30
2023-01-31T11:09:38.375Z,1.20
2023-01-31T11:12:07.614Z,0.73
2023-01-31T11:14:36.464Z,1.50
2023-01-31T11:17:08.594Z,0.90
2023-01-31T11:19:56.367Z,1.17
2023-01-31T11:22:32.840Z,1.00
2023-01-31T11:25:04.270Z,2.00
2023-01-31T11:27:40.423Z,0.90
2023-01-31T11:30:22.740Z,3.72
2023-01-31T11:32:50.153Z,1.00
2023-01-31T11:35:17.050Z,1.00
2023-01-31T11:38:00.157Z,1.25
2023-01-31T11:43:25.148Z,1.00
2023-01-31T11:46:00.834Z,0.95
2023-01-31T11:48:48.145Z,2.55
2023-01-31T11:51:31.030Z,2.55
2023-01-31T11:53:58.199Z,0.63
2023-01-31T11:56:31.041Z,1.10
2023-01-31T11:59:04.342Z,1.00
2023-01-31T12:01:32.349Z,1.20
2023-01-31T12:04:06.585Z,1.05
2023-01-31T12:06:36.425Z,2.40
2023-01-31T12:09:24.459Z,1.23
2023-01-31T12:12:06.399Z,1.58
2023-01-31T12:14:42.581Z,0.73
2023-01-31T12:17:15.719Z,0.75
2023-01-31T12:20:00.709Z,1.20
2023-01-31T12:22:34.112Z,1.00
2023-01-31T12:25:09.573Z,1.60
2023-01-31T12:27:36.527Z,0.70
2023-01-31T12:30:21.659Z,0.60
2023-01-31T12:33:02.841Z,0.95
2023-01-31T12:35:54.186Z,0.70
2023-01-31T12:38:40.365Z,0.93
2023-01-31T12:41:13.540Z,0.90
2023-01-31T12:44:01.363Z,1.08
2023-01-31T12:46:28.547Z,0.55
2023-01-31T12:49:23.280Z,0.60
2023-01-31T12:52:29.134Z,0.85
2023-01-31T12:55:19.395Z,1.08
2023-01-31T12:58:07.767Z,1.27
2023-01-31T13:00:59.535Z,0.90
2023-01-31T13:03:54.219Z,0.57
2023-01-31T13:06:31.827Z,1.02
2023-01-31T13:09:10.760Z,0.80
2023-01-31T13:11:47.722Z,0.70
2023-01-31T13:14:20.483Z,0.60
2023-01-31T13:16:51.165Z,0.75
2023-01-31T13:19:27.550Z,0.80
2023-01-31T13:22:02.264Z,0.70
2023-01-31T13:24:38.427Z,0.75
2023-01-31T13:27:38.200Z,1.02
2023-01-31T13:30:23.771Z,1.45
2023-01-31T13:32:55.443Z,2.38
2023-01-31T13:35:26.380Z,1.95
2023-01-31T13:40:44.442Z,1.83
2023-01-31T13:43:19.387Z,1.10
2023-01-31T13:45:55.413Z,1.10
2023-01-31T13:48:33.394Z,1.08
2023-01-31T13:51:10.871Z,0.95
2023-01-31T13:53:47.290Z,3.67
2023-01-31T13:56:25.492Z,1.20
2023-01-31T13:58:54.805Z,1.38
2023-01-31T14:01:47.106Z,1.00
2023-01-31T14:04:14.065Z,1.60
2023-01-31T14:06:55.447Z,1.40
2023-01-31T14:09:32.442Z,1.40
2023-01-31T14:12:00.945Z,1.48
2023-01-31T14:14:37.564Z,1.40
2023-01-31T14:17:12.514Z,1.35
2023-01-31T14:19:45.927Z,3.15
2023-01-31T14:22:12.802Z,3.40
2023-01-31T14:24:53.664Z,2.38
2023-01-31T14:27:22.332Z,2.60
2023-01-31T14:30:08.974Z,2.65
2023-01-31T14:32:38.891Z,2.13
2023-01-31T14:35:27.834Z,1.95
2023-01-31T14:38:16.541Z,2.65
2023-01-31T14:41:01.637Z,2.40
2023-01-31T14:43:43.864Z,2.08
2023-01-31T14:46:22.843Z,2.97
2023-01-31T14:49:14.249Z,3.78
2023-01-31T14:51:46.755Z,4.80
2023-01-31T14:54:45.445Z,4.88
2023-01-31T14:57:25.450Z,4.88
2023-01-31T14:59:56.859Z,5.57
2023-01-31T15:02:32.877Z,4.82
2023-01-31T15:05:07.139Z,5.45
2023-01-31T15:07:34.113Z,5.22
2023-01-31T15:10:01.269Z,5.20
2023-01-31T15:12:54.911Z,4.57
2023-01-31T15:15:38.759Z,4.65
2023-01-31T15:18:19.474Z,6.70
2023-01-31T15:20:51.607Z,8.68
2023-01-31T15:23:25.127Z,18.02
2023-01-31T15:25:54.444Z,20.08
2023-01-31T15:28:28.582Z,42.75
2023-01-31T15:30:58.821Z,67.35
2023-01-31T15:33:49.580Z,26.08
2023-01-31T15:36:58.083Z,74.85
2023-01-31T15:39:53.554Z,57.33
2023-01-31T15:42:25.511Z,116.63
2023-01-31T15:45:13.568Z,172.05
2023-01-31T15:47:40.559Z,36.30
2023-01-31T15:50:18.140Z,14.73
2023-01-31T15:52:45.260Z,10.73
2023-01-31T15:55:15.201Z,20.55
2023-01-31T15:57:55.208Z,9.10
2023-01-31T16:00:33.012Z,7.93
2023-01-31T16:03:01.754Z,6.75
2023-01-31T16:05:39.532Z,7.05
2023-01-31T16:08:36.163Z,8.05
2023-01-31T16:11:06.299Z,6.30
2023-01-31T16:13:40.186Z,6.10
2023-01-31T16:16:10.696Z,8.38
2023-01-31T16:18:38.552Z,6.18
2023-01-31T16:21:33.691Z,9.23
2023-01-31T16:24:13.950Z,4.18
2023-01-31T16:26:50.608Z,3.47
2023-01-31T16:29:20.812Z,5.15
2023-01-31T16:31:51.434Z,4.90
2023-01-31T16:34:36.242Z,4.68
2023-01-31T16:37:05.884Z,4.55
2023-01-31T16:39:37.524Z,4.43
2023-01-31T16:42:09.104Z,4.00
2023-01-31T16:44:41.925Z,3.30
2023-01-31T16:47:47.092Z,4.55
2023-01-31T16:50:24.628Z,4.32
2023-01-31T16:53:32.794Z,6.57
2023-01-31T16:56:14.667Z,5.13
2023-01-31T16:58:53.760Z,4.10
2023-01-31T17:01:27.562Z,4.32
2023-01-31T17:04:15.673Z,4.72
2023-01-31T17:06:45.151Z,4.55
2023-01-31T17:09:18.995Z,5.15
2023-01-31T17:11:47.146Z,4.13
2023-01-31T17:14:14.258Z,4.72
2023-01-31T17:16:41.243Z,6.18
2023-01-31T17:19:08.415Z,6.93
2023-01-31T17:21:41.665Z,9.05
2023-01-31T17:24:19.891Z,7.18
2023-01-31T17:26:46.996Z,6.82
2023-01-31T17:29:17.679Z,6.72
2023-01-31T17:31:44.846Z,6.03
2023-01-31T17:34:14.301Z,4.85
2023-01-31T17:36:42.088Z,5.32
2023-01-31T17:39:09.213Z,4.65
2023-01-31T17:41:39.253Z,3.92
2023-01-31T17:44:06.752Z,3.80
2023-01-31T17:46:33.834Z,3.55
2023-01-31T17:49:00.823Z,4.25
2023-01-31T17:51:27.802Z,4.13
2023-01-31T17:53:54.847Z,3.88
2023-01-31T17:56:21.985Z,4.75
2023-01-31T17:58:49.592Z,3.72
2023-01-31T18:01:16.875Z,2.20
2023-01-31T18:03:44.071Z,3.28
2023-01-31T18:06:11.598Z,2.67
2023-01-31T18:08:38.963Z,2.58
2023-01-31T18:11:15.024Z,3.15
2023-01-31T18:13:42.939Z,2.97
2023-01-31T18:16:23.436Z,3.47
2023-01-31T18:18:52.367Z,3.50
2023-01-31T18:21:22.387Z,2.08
2023-01-31T18:23:54.499Z,1.77
2023-01-31T18:26:22.823Z,1.70
2023-01-31T18:28:50.744Z,1.50
2023-01-31T18:31:18.809Z,1.35
2023-01-31T18:33:47.497Z,1.63
2023-01-31T18:36:17.382Z,1.83
2023-01-31T18:38:46.480Z,1.50
2023-01-31T18:41:18.633Z,1.40
2023-01-31T18:43:47.994Z,1.60
2023-01-31T18:46:17.244Z,1.58
2023-01-31T18:48:44.885Z,1.67
2023-01-31T18:51:14.270Z,1.45
2023-01-31T18:53:44.097Z,1.42
2023-01-31T18:56:14.467Z,1.85
2023-01-31T18:58:42.026Z,1.80
2023-01-31T19:01:11.520Z,1.23
2023-01-31T19:03:39.709Z,1.80
2023-01-31T19:06:14.970Z,2.80
2023-01-31T19:08:42.896Z,3.40
2023-01-31T19:11:13.402Z,5.45
2023-01-31T19:13:42.095Z,7.45
2023-01-31T19:16:11.663Z,7.93
2023-01-31T19:18:39.423Z,6.45
2023-01-31T19:21:26.955Z,6.13
2023-01-31T19:23:56.473Z,5.10
2023-01-31T19:26:23.850Z,5.57
2023-01-31T19:28:50.911Z,3.80
2023-01-31T19:31:23.018Z,3.53
2023-01-31T19:33:51.886Z,3.40
2023-01-31T19:36:21.856Z,2.22
2023-01-31T19:38:48.816Z,4.35
2023-01-31T21:41:37.387Z,1.20
2023-01-31T21:44:04.688Z,1.30
2023-01-31T21:46:31.901Z,1.65
2023-01-31T21:49:00.390Z,1.77
2023-01-31T21:51:27.753Z,1.73
2023-01-31T21:53:55.041Z,1.42
2023-01-31T21:56:24.717Z,0.93
2023-01-31T21:58:54.748Z,1.60
2023-01-31T22:01:24.250Z,1.00
2023-01-31T22:03:52.612Z,1.20
2023-01-31T22:06:25.900Z,1.65
2023-01-31T22:08:57.797Z,1.63
2023-01-31T22:11:25.220Z,1.10
2023-01-31T22:13:55.804Z,1.40
2023-01-31T22:16:23.276Z,1.60
2023-01-31T22:18:50.409Z,1.20
2023-01-31T22:21:20.000Z,1.60
2023-01-31T22:23:49.589Z,1.30
2023-01-31T22:26:19.901Z,1.70
2023-01-31T22:28:46.933Z,1.48
2023-01-31T22:31:14.204Z,1.45
2023-01-31T22:33:42.846Z,1.77
2023-01-31T22:36:12.309Z,1.63
2023-01-31T22:38:39.663Z,1.95
2023-01-31T22:41:09.316Z,2.22
2023-01-31T22:43:39.993Z,1.77
2023-01-31T22:46:08.651Z,2.03
2023-01-31T22:48:38.393Z,1.83
2023-01-31T22:51:11.832Z,1.20
2023-01-31T22:53:40.003Z,1.63
2023-01-31T22:56:12.867Z,1.67
2023-01-31T22:58:40.412Z,1.20
2023-01-31T23:01:15.848Z,1.25
2023-01-31T23:03:43.518Z,1.27
2023-01-31T23:06:11.427Z,2.00
2023-01-31T23:08:38.664Z,1.40
2023-01-31T23:11:14.064Z,1.33
2023-01-31T23:13:41.354Z,1.65
2023-01-31T23:16:09.584Z,1.35
2023-01-31T23:18:36.843Z,1.58
2023-01-31T23:21:11.138Z,1.52
2023-01-31T23:23:38.211Z,1.38
2023-01-31T23:26:06.005Z,1.85
2023-01-31T23:28:33.374Z,1.58
2023-01-31T23:31:00.759Z,1.17
2023-01-31T23:33:28.466Z,1.88
2023-01-31T23:35:55.538Z,1.73
2023-01-31T23:38:23.080Z,1.95
2023-01-31T23:40:54.332Z,1.40
2023-01-31T23:43:22.567Z,1.45
2023-01-31T23:45:50.247Z,1.77
2023-01-31T23:48:17.606Z,2.05
2023-01-31T23:50:44.675Z,1.70
2023-01-31T23:53:11.784Z,1.95
2023-01-31T23:55:38.744Z,1.73
2023-01-31T23:58:05.676Z,2.10
